Nearby METAR Reports

 

KMLE - Omaha/Millard, Nebraska, USA
Distance from station: NE 1mi, 2km
Updated: Mon, 23-Oct-2017 8:55pm CDT
Clear
Clear
 Wind from NW
Wind: NW 13 mph , 20 km/h, Gust: 21 mph , 33 km/h
Temperature: 54°F , 12°C
Dew Point: 34°F , 1°C
Humidity: 47%
Barometer: 30.08 inHg , 1018.6 hPa
Clouds: Clear
Visibility: 10 miles , 16 km
2017/10/24 01:55 KMLE 240155Z AUTO 31011G18KT 10SM CLR 12/01 A3008 RMK AO2 T01240007
KOFF - Offutt Afb/Belle, Nebraska, USA
Distance from station: ESE 12mi, 20km
Updated: Mon, 23-Oct-2017 8:56pm CDT
Clear
Clear
 Wind from WNW
Wind: WNW 9 mph , 15 km/h
Temperature: 50°F , 10°C
Wind Chill: 46°F , 8°C
Dew Point: 32°F , 0°C
Humidity: 50%
Barometer: 30.06 inHg , 1017.9 hPa
Clouds: Clear
Visibility: 10 miles , 16 km
2017/10/24 01:56 KOFF 240156Z AUTO 30008KT 10SM CLR 10/00 A3006 RMK AO2 SLP184 T00981001
 
KOMA - Omaha/Eppley, Nebraska, USA
Distance from station: NE 15mi, 24km
Updated: Mon, 23-Oct-2017 8:52pm CDT
Partly cloudy
Partly cloudy
 Wind from WNW
Wind: WNW 12 mph , 19 km/h
Temperature: 52°F , 11°C
Dew Point: 30°F , -1°C
Humidity: 44%
Barometer: 30.06 inHg , 1017.9 hPa
Clouds: Partly cloudy
Visibility: 10 miles , 16 km
Cloud details: Partly cloudy 10000 ft
2017/10/24 01:52 KOMA 240152Z 30010KT 10SM SCT100 11/M01 A3006 RMK AO2 SLP182 T01061006
KBTA - Blair Muni, Nebraska, USA
Distance from station: N 16mi, 25km
Updated: Mon, 23-Oct-2017 8:55pm CDT
Partly cloudy
Partly cloudy
 Wind from NW
Wind: NW 13 mph , 20 km/h, Gust: 18 mph , 30 km/h
Temperature: 52°F , 11°C
Dew Point: 34°F , 1°C
Humidity: 50%
Barometer: 30.06 inHg , 1017.9 hPa
Clouds: Partly cloudy
Visibility: 10 miles , 16 km
Cloud details: Partly cloudy 12000 ft
2017/10/24 01:55 KBTA 240155Z AUTO 31011G16KT 10SM SCT120 11/01 A3006 RMK AO2 T01070005
 
KCBF - Council Bluffs, Iowa, USA
Distance from station: ENE 20mi, 32km
Updated: Mon, 23-Oct-2017 9:15pm CDT
Few Clouds
Few Clouds
 Wind from WNW
Wind: WNW 12 mph , 19 km/h
Temperature: 50°F , 10°C
Wind Chill: 45°F , 7°C
Dew Point: 32°F , 0°C
Humidity: 50%
Barometer: 30.05 inHg , 1017.6 hPa
Clouds: Few Clouds
Visibility: 10 miles , 16 km
Cloud details: Few Clouds 10000 ft
2017/10/24 02:15 KCBF 240215Z AUTO 30010KT 10SM FEW100 10/M00 A3005 RMK AO2
KPMV - Plattsmouth Muni, Nebraska, USA
Distance from station: SE 20mi, 32km
Updated: Mon, 23-Oct-2017 8:55pm CDT
Clear
Clear
 Wind from WNW
Wind: WNW 9 mph , 15 km/h
Temperature: 52°F , 11°C
Dew Point: 32°F , 0°C
Humidity: 47%
Barometer: 30.07 inHg , 1018.3 hPa
Clouds: Clear
Visibility: 10 miles , 16 km
2017/10/24 01:55 KPMV 240155Z AUTO 30008KT 10SM CLR 11/00 A3007 RMK AO2 T01070001
 
KAHQ - Wahoo, Nebraska, USA
Distance from station: W 25mi, 40km
Updated: Mon, 23-Oct-2017 8:55pm CDT
Partly cloudy
Partly cloudy
 Wind from WNW
Wind: WNW 12 mph , 19 km/h, Gust: 20 mph , 31 km/h
Temperature: 54°F , 12°C
Dew Point: 32°F , 0°C
Humidity: 44%
Barometer: 30.10 inHg , 1019.3 hPa
Clouds: Partly cloudy
Visibility: 10 miles , 16 km
Cloud details: Partly cloudy 9000 ft
2017/10/24 01:55 KAHQ 240155Z AUTO 30010G17KT 10SM SCT090 12/00 A3010 RMK AO2 T01150000
KFET - Fremont Muni Arp, Nebraska, USA
Distance from station: NW 27mi, 43km
Updated: Mon, 23-Oct-2017 8:55pm CDT
Overcast
Overcast
 Wind from WNW
Wind: WNW 12 mph , 19 km/h
Temperature: 52°F , 11°C
Dew Point: 32°F , 0°C
Humidity: 47%
Barometer: 30.10 inHg , 1019.3 hPa
Clouds: Overcast
Visibility: 10 miles , 16 km
Cloud details: Overcast 11000 ft
2017/10/24 01:55 KFET 240155Z AUTO 29010KT 10SM OVC110 11/00 A3010 RMK AO2 T01050004
 
KTQE - Tekamah, Nebraska, USA
Distance from station: N 40mi, 64km
Updated: Mon, 23-Oct-2017 8:54pm CDT
Overcast
Overcast
 Wind from WNW
Wind: WNW 12 mph , 19 km/h, Gust: 18 mph , 30 km/h
Temperature: 52°F , 11°C
Dew Point: 32°F , 0°C
Humidity: 47%
Barometer: 30.06 inHg , 1017.9 hPa
Clouds: Overcast
Visibility: 10 miles , 16 km
Cloud details: Overcast 12000 ft
2017/10/24 01:54 KTQE 240154Z AUTO 30010G16KT 10SM OVC120 11/00 A3006 RMK AO2 SLP174 T01110000
KLNK - Lincoln, Nebraska, USA
Distance from station: SW 41mi, 65km
Updated: Mon, 23-Oct-2017 8:54pm CDT
Mostly cloudy
Mostly cloudy
 
Temperature: 54°F , 12°C
Dew Point: 32°F , 0°C
Humidity: 44%
Barometer: 30.14 inHg , 1020.7 hPa
Clouds: Mostly cloudy
Visibility: 10 miles , 16 km
Cloud details: Partly cloudy 10000 ft
Mostly cloudy 12000 ft
2017/10/24 01:54 KLNK 240154Z 10SM SCT100 BKN120 12/00 A3014 RMK AO2 SLP206 T01220000
 
KAFK - Nebraska City, Nebraska, USA
Distance from station: SSE 43mi, 70km
Updated: Mon, 23-Oct-2017 8:55pm CDT
Partly cloudy
Partly cloudy
 Wind from NW
Wind: NW 9 mph , 15 km/h
Temperature: 52°F , 11°C
Dew Point: 32°F , 0°C
Humidity: 47%
Barometer: 30.09 inHg , 1019 hPa
Clouds: Partly cloudy
Visibility: 10 miles , 16 km
Cloud details: Partly cloudy 9000 ft
2017/10/24 01:55 KAFK 240155Z AUTO 31008KT 10SM SCT090 11/00 A3009 RMK AO2 T01100001
KRDK - Red Oak, Iowa, USA
Distance from station: ESE 47mi, 75km
Updated: Mon, 23-Oct-2017 8:55pm CDT
Mostly cloudy
Mostly cloudy
 Wind from WNW
Wind: WNW 6 mph , 9 km/h
Temperature: 48°F , 9°C
Wind Chill: 45°F , 7°C
Dew Point: 32°F , 0°C
Humidity: 54%
Barometer: 30.05 inHg , 1017.6 hPa
Clouds: Mostly cloudy
Visibility: 10 miles , 16 km
Cloud details: Few Clouds 9000 ft
Partly cloudy 14000 ft
Mostly cloudy 18000 ft
2017/10/24 01:55 KRDK 240155Z AUTO 29005KT 10SM FEW090 SCT140 BKN180 09/M00 A3005 RMK AO2
 
KSDA - Shenandoah Muni, Iowa, USA
Distance from station: SE 48mi, 77km
Updated: Mon, 23-Oct-2017 9:15pm CDT
Partly cloudy
Partly cloudy
 Wind from W
Wind: W 6 mph , 9 km/h
Temperature: 48°F , 9°C
Wind Chill: 45°F , 7°C
Dew Point: 32°F , 0°C
Humidity: 54%
Barometer: 30.07 inHg , 1018.3 hPa
Clouds: Partly cloudy
Visibility: 10 miles , 16 km
Cloud details: Few Clouds 7500 ft
Partly cloudy 9000 ft
2017/10/24 02:15 KSDA 240215Z AUTO 28005KT 10SM FEW075 SCT090 09/00 A3007 RMK AO2
KHNR - Harlan Muni, Iowa, USA
Distance from station: NE 49mi, 80km
Updated: Mon, 23-Oct-2017 9:15pm CDT
Few Clouds
Few Clouds
 Wind from WNW
Wind: WNW 13 mph , 20 km/h, Gust: 20 mph , 31 km/h
Temperature: 50°F , 10°C
Wind Chill: 45°F , 7°C
Dew Point: 32°F , 0°C
Humidity: 50%
Barometer: 30.05 inHg , 1017.6 hPa
Clouds: Few Clouds
Visibility: 10 miles , 16 km
Cloud details: Few Clouds 10000 ft
2017/10/24 02:15 KHNR 240215Z AUTO 30011G17KT 10SM FEW100 10/00 A3005 RMK AO2